Terminal Aerodrome Forecast
Issued by NWS

Home | Current Version | Previous Version | Text Only | Print | Product List | Glossary On
Versions: 1 2 3 4 5 6 7 8 9 10 11 12 13 14 15 16 17 18
000
FTUS45 KGJT 281739
TAFVEL
TAF
KVEL 281739Z 2818/2918 16005KT P6SM SKC
     FM281900 20006KT P6SM FEW140
     FM282200 26009G17KT P6SM SCT130
     FM290100 29008KT P6SM FEW250
     FM290600 30010KT P6SM SKC
     FM291200 VRB03KT P6SM SKC=

USA.gov is the U.S. government's official web portal to all federal, state and local government web resources and services.